PWSweather.com
Personal Weather Stations
Station Observations
KOHAVON11
Long Road Station, Avon, OH 44011

Long Road StationAvon, OH 44011

Lat: 41.437, Lon: -82.0477

Elevation: 686

Station Type: Davis Vantage Pro2

http://www.avon-weather.com

High Low Average
Temperature 66.4°F19.1°C 34.2°F1.2°C 51.9°F11.1°C
Dew Point 32.0°F0.0°C 24.3°F-4.3°C 27.7°F-2.4°C
Winds 11.0 mph 17.7 kmh Calm Calm 3.0 mph SW4.8 kmh SW
Wind Gusts 18.0 mph29.0 kmh -- 6.0 mph9.7 kmh
Humidity 72% 25% 44%
Pressure 30.29 in1025.7 mb 30.11 in1019.6 mb -
Precipitation 0.00 in0.0 mm - -
Hour Temp Dew Point Humidity Winds Wind Gusts Pressure Precip Precip Rate Daily Precip Total
12:02 AM 36.2°F2.3°C 24.6°F-4.1°C 63% Calm Calm -- 30.26 in1024.7 mb 0.00 in0.0 mm 0.00 in0.0 mm 0.00 in0.0 mm
12:07 AM 36.0°F2.2°C 24.4°F-4.2°C 63% Calm Calm -- 30.26 in1024.7 mb 0.00 in0.0 mm 0.00 in0.0 mm 0.00 in0.0 mm
12:12 AM 35.9°F2.2°C 24.3°F-4.3°C 63% Calm Calm -- 30.26 in1024.7 mb 0.00 in0.0 mm 0.00 in0.0 mm 0.00 in0.0 mm
12:17 AM 35.7°F2.1°C 24.2°F-4.3°C 63% Calm Calm -- 30.26 in1024.7 mb 0.00 in0.0 mm 0.00 in0.0 mm 0.00 in0.0 mm
12:22 AM 35.6°F2.0°C 24.5°F-4.2°C 64% Calm Calm -- 30.26 in1024.7 mb 0.00 in0.0 mm 0.00 in0.0 mm 0.00 in0.0 mm
12:27 AM 35.4°F1.9°C 24.6°F-4.1°C 65% Calm Calm -- 30.26 in1024.7 mb 0.00 in0.0 mm 0.00 in0.0 mm 0.00 in0.0 mm
12:32 AM 35.3°F1.8°C 24.5°F-4.2°C 65% Calm Calm -- 30.26 in1024.7 mb 0.00 in0.0 mm 0.00 in0.0 mm 0.00 in0.0 mm
12:37 AM 35.1°F1.7°C 24.7°F-4.1°C 66% Calm Calm -- 30.26 in1024.7 mb 0.00 in0.0 mm 0.00 in0.0 mm 0.00 in0.0 mm
12:42 AM 35.0°F1.7°C 25.0°F-3.9°C 67% Calm Calm 1.0 mph1.6 kmh 30.26 in1024.7 mb 0.00 in0.0 mm 0.00 in0.0 mm 0.00 in0.0 mm
12:47 AM 34.9°F1.6°C 25.3°F-3.7°C 68% Calm Calm -- 30.26 in1024.7 mb 0.00 in0.0 mm 0.00 in0.0 mm 0.00 in0.0 mm
12:52 AM 34.8°F1.6°C 25.2°F-3.8°C 68% Calm Calm -- 30.26 in1024.7 mb 0.00 in0.0 mm 0.00 in0.0 mm 0.00 in0.0 mm
12:57 AM 34.8°F1.6°C 25.6°F-3.6°C 69% Calm Calm -- 30.26 in1024.7 mb 0.00 in0.0 mm 0.00 in0.0 mm 0.00 in0.0 mm
01:02 AM 34.8°F1.6°C 25.9°F-3.4°C 70% Calm Calm -- 30.26 in1024.7 mb 0.00 in0.0 mm 0.00 in0.0 mm 0.00 in0.0 mm
01:07 AM 34.7°F1.5°C 25.8°F-3.4°C 70% Calm Calm -- 30.26 in1024.7 mb 0.00 in0.0 mm 0.00 in0.0 mm 0.00 in0.0 mm
01:12 AM 34.7°F1.5°C 25.8°F-3.4°C 70% Calm Calm -- 30.26 in1024.7 mb 0.00 in0.0 mm 0.00 in0.0 mm 0.00 in0.0 mm
01:17 AM 34.6°F1.4°C 25.7°F-3.5°C 70% Calm Calm -- 30.26 in1024.7 mb 0.00 in0.0 mm 0.00 in0.0 mm 0.00 in0.0 mm
01:22 AM 34.6°F1.4°C 25.7°F-3.5°C 70% Calm Calm -- 30.26 in1024.7 mb 0.00 in0.0 mm 0.00 in0.0 mm 0.00 in0.0 mm
01:27 AM 34.5°F1.4°C 26.0°F-3.3°C 71% Calm Calm -- 30.25 in1024.4 mb 0.00 in0.0 mm 0.00 in0.0 mm 0.00 in0.0 mm
01:32 AM 34.4°F1.3°C 25.9°F-3.4°C 71% Calm Calm 2.0 mph3.2 kmh 30.25 in1024.4 mb 0.00 in0.0 mm 0.00 in0.0 mm 0.00 in0.0 mm
01:37 AM 34.4°F1.3°C 25.9°F-3.4°C 71% 1.0 mph SE1.6 kmh SE 2.0 mph3.2 kmh 30.25 in1024.4 mb 0.00 in0.0 mm 0.00 in0.0 mm 0.00 in0.0 mm
01:42 AM 34.2°F1.2°C 25.7°F-3.5°C 71% 1.0 mph SE1.6 kmh SE 2.0 mph3.2 kmh 30.25 in1024.4 mb 0.00 in0.0 mm 0.00 in0.0 mm 0.00 in0.0 mm
01:47 AM 34.2°F1.2°C 26.0°F-3.3°C 72% Calm Calm 2.0 mph3.2 kmh 30.25 in1024.4 mb 0.00 in0.0 mm 0.00 in0.0 mm 0.00 in0.0 mm
01:52 AM 34.2°F1.2°C 26.0°F-3.3°C 72% 1.0 mph SSE1.6 kmh SSE 2.0 mph3.2 kmh 30.25 in1024.4 mb 0.00 in0.0 mm 0.00 in0.0 mm 0.00 in0.0 mm
01:57 AM 34.2°F1.2°C 25.7°F-3.5°C 71% 1.0 mph SSE1.6 kmh SSE 2.0 mph3.2 kmh 30.25 in1024.4 mb 0.00 in0.0 mm 0.00 in0.0 mm 0.00 in0.0 mm
02:02 AM 34.5°F1.4°C 25.6°F-3.6°C 70% 2.0 mph S3.2 kmh S 3.0 mph4.8 kmh 30.25 in1024.4 mb 0.00 in0.0 mm 0.00 in0.0 mm 0.00 in0.0 mm
02:07 AM 35.0°F1.7°C 25.7°F-3.5°C 69% 2.0 mph S3.2 kmh S 4.0 mph6.4 kmh 30.25 in1024.4 mb 0.00 in0.0 mm 0.00 in0.0 mm 0.00 in0.0 mm
02:12 AM 35.6°F2.0°C 26.0°F-3.3°C 68% 3.0 mph SSW4.8 kmh SSW 4.0 mph6.4 kmh 30.24 in1024.0 mb 0.00 in0.0 mm 0.00 in0.0 mm 0.00 in0.0 mm
02:17 AM 36.2°F2.3°C 25.8°F-3.4°C 66% 3.0 mph S4.8 kmh S 4.0 mph6.4 kmh 30.24 in1024.0 mb 0.00 in0.0 mm 0.00 in0.0 mm 0.00 in0.0 mm
02:22 AM 36.7°F2.6°C 25.9°F-3.4°C 65% 3.0 mph S4.8 kmh S 5.0 mph8.0 kmh 30.24 in1024.0 mb 0.00 in0.0 mm 0.00 in0.0 mm 0.00 in0.0 mm
02:27 AM 37.1°F2.8°C 25.5°F-3.6°C 63% 4.0 mph S6.4 kmh S 5.0 mph8.0 kmh 30.24 in1024.0 mb 0.00 in0.0 mm 0.00 in0.0 mm 0.00 in0.0 mm
02:32 AM 37.4°F3.0°C 25.4°F-3.7°C 62% 3.0 mph SSW4.8 kmh SSW 5.0 mph8.0 kmh 30.24 in1024.0 mb 0.00 in0.0 mm 0.00 in0.0 mm 0.00 in0.0 mm
02:37 AM 37.7°F3.2°C 25.2°F-3.8°C 61% 3.0 mph S4.8 kmh S 5.0 mph8.0 kmh 30.24 in1024.0 mb 0.00 in0.0 mm 0.00 in0.0 mm 0.00 in0.0 mm
02:42 AM 37.9°F3.3°C 25.0°F-3.9°C 60% 2.0 mph SSW3.2 kmh SSW 4.0 mph6.4 kmh 30.24 in1024.0 mb 0.00 in0.0 mm 0.00 in0.0 mm 0.00 in0.0 mm
02:47 AM 38.1°F3.4°C 24.8°F-4.0°C 59% 1.0 mph SSW1.6 kmh SSW 4.0 mph6.4 kmh 30.24 in1024.0 mb 0.00 in0.0 mm 0.00 in0.0 mm 0.00 in0.0 mm
02:52 AM 38.2°F3.4°C 24.9°F-3.9°C 59% 2.0 mph SW3.2 kmh SW 4.0 mph6.4 kmh 30.24 in1024.0 mb 0.00 in0.0 mm 0.00 in0.0 mm 0.00 in0.0 mm
02:57 AM 38.3°F3.5°C 25.0°F-3.9°C 59% 2.0 mph SW3.2 kmh SW 4.0 mph6.4 kmh 30.24 in1024.0 mb 0.00 in0.0 mm 0.00 in0.0 mm 0.00 in0.0 mm
03:02 AM 38.5°F3.6°C 24.7°F-4.1°C 58% 3.0 mph SSW4.8 kmh SSW 6.0 mph9.7 kmh 30.24 in1024.0 mb 0.00 in0.0 mm 0.00 in0.0 mm 0.00 in0.0 mm
03:07 AM 38.7°F3.7°C 24.9°F-3.9°C 58% 2.0 mph SSW3.2 kmh SSW 6.0 mph9.7 kmh 30.24 in1024.0 mb 0.00 in0.0 mm 0.00 in0.0 mm 0.00 in0.0 mm
03:12 AM 38.8°F3.8°C 25.0°F-3.9°C 58% 3.0 mph SSW4.8 kmh SSW 6.0 mph9.7 kmh 30.24 in1024.0 mb 0.00 in0.0 mm 0.00 in0.0 mm 0.00 in0.0 mm
03:17 AM 38.9°F3.8°C 25.1°F-3.8°C 58% 3.0 mph SSW4.8 kmh SSW 6.0 mph9.7 kmh 30.24 in1024.0 mb 0.00 in0.0 mm 0.00 in0.0 mm 0.00 in0.0 mm
03:22 AM 38.9°F3.8°C 25.1°F-3.8°C 58% 2.0 mph SW3.2 kmh SW 5.0 mph8.0 kmh 30.24 in1024.0 mb 0.00 in0.0 mm 0.00 in0.0 mm 0.00 in0.0 mm
03:27 AM 38.9°F3.8°C 25.1°F-3.8°C 58% 3.0 mph SSW4.8 kmh SSW 6.0 mph9.7 kmh 30.24 in1024.0 mb 0.00 in0.0 mm 0.00 in0.0 mm 0.00 in0.0 mm
03:32 AM 38.9°F3.8°C 25.1°F-3.8°C 58% 2.0 mph SSW3.2 kmh SSW 6.0 mph9.7 kmh 30.24 in1024.0 mb 0.00 in0.0 mm 0.00 in0.0 mm 0.00 in0.0 mm
03:37 AM 38.9°F3.8°C 25.1°F-3.8°C 58% 2.0 mph SW3.2 kmh SW 6.0 mph9.7 kmh 30.24 in1024.0 mb 0.00 in0.0 mm 0.00 in0.0 mm 0.00 in0.0 mm
03:42 AM 38.9°F3.8°C 25.1°F-3.8°C 58% 2.0 mph S3.2 kmh S 6.0 mph9.7 kmh 30.24 in1024.0 mb 0.00 in0.0 mm 0.00 in0.0 mm 0.00 in0.0 mm
03:47 AM 38.8°F3.8°C 25.4°F-3.7°C 59% 2.0 mph SSW3.2 kmh SSW 4.0 mph6.4 kmh 30.24 in1024.0 mb 0.00 in0.0 mm 0.00 in0.0 mm 0.00 in0.0 mm
03:52 AM 38.8°F3.8°C 25.4°F-3.7°C 59% 2.0 mph S3.2 kmh S 4.0 mph6.4 kmh 30.24 in1024.0 mb 0.00 in0.0 mm 0.00 in0.0 mm 0.00 in0.0 mm
03:57 AM 38.7°F3.7°C 25.4°F-3.7°C 59% 3.0 mph S4.8 kmh S 4.0 mph6.4 kmh 30.24 in1024.0 mb 0.00 in0.0 mm 0.00 in0.0 mm 0.00 in0.0 mm
04:02 AM 38.6°F3.7°C 25.7°F-3.5°C 60% 3.0 mph S4.8 kmh S 4.0 mph6.4 kmh 30.24 in1024.0 mb 0.00 in0.0 mm 0.00 in0.0 mm 0.00 in0.0 mm
04:07 AM 38.5°F3.6°C 25.6°F-3.6°C 60% 3.0 mph S4.8 kmh S 3.0 mph4.8 kmh 30.24 in1024.0 mb 0.00 in0.0 mm 0.00 in0.0 mm 0.00 in0.0 mm
04:12 AM 38.4°F3.6°C 25.5°F-3.6°C 60% 2.0 mph S3.2 kmh S 3.0 mph4.8 kmh 30.24 in1024.0 mb 0.00 in0.0 mm 0.00 in0.0 mm 0.00 in0.0 mm
04:17 AM 38.3°F3.5°C 25.4°F-3.7°C 60% 3.0 mph S4.8 kmh S 3.0 mph4.8 kmh 30.24 in1024.0 mb 0.00 in0.0 mm 0.00 in0.0 mm 0.00 in0.0 mm
04:22 AM 38.2°F3.4°C 25.3°F-3.7°C 60% 2.0 mph SSE3.2 kmh SSE 4.0 mph6.4 kmh 30.24 in1024.0 mb 0.00 in0.0 mm 0.00 in0.0 mm 0.00 in0.0 mm
04:27 AM 38.1°F3.4°C 25.2°F-3.8°C 60% 3.0 mph SSW4.8 kmh SSW 4.0 mph6.4 kmh 30.24 in1024.0 mb 0.00 in0.0 mm 0.00 in0.0 mm 0.00 in0.0 mm
04:32 AM 38.2°F3.4°C 25.3°F-3.7°C 60% 2.0 mph SSW3.2 kmh SSW 5.0 mph8.0 kmh 30.24 in1024.0 mb 0.00 in0.0 mm 0.00 in0.0 mm 0.00 in0.0 mm
04:37 AM 38.2°F3.4°C 25.3°F-3.7°C 60% 3.0 mph S4.8 kmh S 5.0 mph8.0 kmh 30.24 in1024.0 mb 0.00 in0.0 mm 0.00 in0.0 mm 0.00 in0.0 mm
04:42 AM 38.2°F3.4°C 25.3°F-3.7°C 60% 2.0 mph S3.2 kmh S 5.0 mph8.0 kmh 30.24 in1024.0 mb 0.00 in0.0 mm 0.00 in0.0 mm 0.00 in0.0 mm
04:47 AM 38.2°F3.4°C 25.7°F-3.5°C 61% 2.0 mph S3.2 kmh S 5.0 mph8.0 kmh 30.24 in1024.0 mb 0.00 in0.0 mm 0.00 in0.0 mm 0.00 in0.0 mm
04:52 AM 38.2°F3.4°C 25.7°F-3.5°C 61% 3.0 mph SSW4.8 kmh SSW 3.0 mph4.8 kmh 30.24 in1024.0 mb 0.00 in0.0 mm 0.00 in0.0 mm 0.00 in0.0 mm
04:57 AM 38.2°F3.4°C 25.3°F-3.7°C 60% 2.0 mph S3.2 kmh S 3.0 mph4.8 kmh 30.24 in1024.0 mb 0.00 in0.0 mm 0.00 in0.0 mm 0.00 in0.0 mm
05:02 AM 38.2°F3.4°C 25.3°F-3.7°C 60% 2.0 mph S3.2 kmh S 4.0 mph6.4 kmh 30.24 in1024.0 mb 0.00 in0.0 mm 0.00 in0.0 mm 0.00 in0.0 mm
05:07 AM 38.2°F3.4°C 25.3°F-3.7°C 60% 2.0 mph S3.2 kmh S 4.0 mph6.4 kmh 30.24 in1024.0 mb 0.00 in0.0 mm 0.00 in0.0 mm 0.00 in0.0 mm
05:12 AM 38.2°F3.4°C 25.7°F-3.5°C 61% 2.0 mph S3.2 kmh S 4.0 mph6.4 kmh 30.24 in1024.0 mb 0.00 in0.0 mm 0.00 in0.0 mm 0.00 in0.0 mm
05:17 AM 38.1°F3.4°C 25.2°F-3.8°C 60% 2.0 mph SSW3.2 kmh SSW 4.0 mph6.4 kmh 30.24 in1024.0 mb 0.00 in0.0 mm 0.00 in0.0 mm 0.00 in0.0 mm
05:22 AM 38.1°F3.4°C 25.2°F-3.8°C 60% 1.0 mph SSW1.6 kmh SSW 2.0 mph3.2 kmh 30.24 in1024.0 mb 0.00 in0.0 mm 0.00 in0.0 mm 0.00 in0.0 mm
05:27 AM 38.2°F3.4°C 25.3°F-3.7°C 60% 2.0 mph SSW3.2 kmh SSW 2.0 mph3.2 kmh 30.25 in1024.4 mb 0.00 in0.0 mm 0.00 in0.0 mm 0.00 in0.0 mm
05:32 AM 38.2°F3.4°C 25.3°F-3.7°C 60% 2.0 mph S3.2 kmh S 3.0 mph4.8 kmh 30.25 in1024.4 mb 0.00 in0.0 mm 0.00 in0.0 mm 0.00 in0.0 mm
05:37 AM 38.3°F3.5°C 25.4°F-3.7°C 60% 2.0 mph SSW3.2 kmh SSW 3.0 mph4.8 kmh 30.25 in1024.4 mb 0.00 in0.0 mm 0.00 in0.0 mm 0.00 in0.0 mm
05:42 AM 38.3°F3.5°C 25.4°F-3.7°C 60% 3.0 mph S4.8 kmh S 3.0 mph4.8 kmh 30.25 in1024.4 mb 0.00 in0.0 mm 0.00 in0.0 mm 0.00 in0.0 mm
05:47 AM 38.3°F3.5°C 25.4°F-3.7°C 60% 1.0 mph SSW1.6 kmh SSW 4.0 mph6.4 kmh 30.25 in1024.4 mb 0.00 in0.0 mm 0.00 in0.0 mm 0.00 in0.0 mm
05:52 AM 38.3°F3.5°C 25.4°F-3.7°C 60% 1.0 mph SSW1.6 kmh SSW 4.0 mph6.4 kmh 30.25 in1024.4 mb 0.00 in0.0 mm 0.00 in0.0 mm 0.00 in0.0 mm
05:57 AM 38.3°F3.5°C 25.4°F-3.7°C 60% 2.0 mph S3.2 kmh S 4.0 mph6.4 kmh 30.25 in1024.4 mb 0.00 in0.0 mm 0.00 in0.0 mm 0.00 in0.0 mm
06:02 AM 38.3°F3.5°C 25.4°F-3.7°C 60% 2.0 mph SSW3.2 kmh SSW 4.0 mph6.4 kmh 30.25 in1024.4 mb 0.00 in0.0 mm 0.00 in0.0 mm 0.00 in0.0 mm
06:07 AM 38.2°F3.4°C 25.7°F-3.5°C 61% 2.0 mph S3.2 kmh S 3.0 mph4.8 kmh 30.25 in1024.4 mb 0.00 in0.0 mm 0.00 in0.0 mm 0.00 in0.0 mm
06:12 AM 38.2°F3.4°C 25.3°F-3.7°C 60% 2.0 mph S3.2 kmh S 3.0 mph4.8 kmh 30.25 in1024.4 mb 0.00 in0.0 mm 0.00 in0.0 mm 0.00 in0.0 mm
06:17 AM 38.2°F3.4°C 25.3°F-3.7°C 60% 1.0 mph S1.6 kmh S 3.0 mph4.8 kmh 30.25 in1024.4 mb 0.00 in0.0 mm 0.00 in0.0 mm 0.00 in0.0 mm
06:22 AM 38.1°F3.4°C 25.2°F-3.8°C 60% 2.0 mph S3.2 kmh S 3.0 mph4.8 kmh 30.25 in1024.4 mb 0.00 in0.0 mm 0.00 in0.0 mm 0.00 in0.0 mm
06:27 AM 38.0°F3.3°C 25.1°F-3.8°C 60% 1.0 mph S1.6 kmh S 2.0 mph3.2 kmh 30.25 in1024.4 mb 0.00 in0.0 mm 0.00 in0.0 mm 0.00 in0.0 mm
06:32 AM 37.8°F3.2°C 24.9°F-3.9°C 60% 2.0 mph S3.2 kmh S 2.0 mph3.2 kmh 30.25 in1024.4 mb 0.00 in0.0 mm 0.00 in0.0 mm 0.00 in0.0 mm
06:37 AM 37.7°F3.2°C 24.8°F-4.0°C 60% 2.0 mph S3.2 kmh S 2.0 mph3.2 kmh 30.25 in1024.4 mb 0.00 in0.0 mm 0.00 in0.0 mm 0.00 in0.0 mm
06:42 AM 37.6°F3.1°C 24.7°F-4.1°C 60% 1.0 mph S1.6 kmh S 2.0 mph3.2 kmh 30.26 in1024.7 mb 0.00 in0.0 mm 0.00 in0.0 mm 0.00 in0.0 mm
06:47 AM 37.6°F3.1°C 24.7°F-4.1°C 60% 1.0 mph SSE1.6 kmh SSE 2.0 mph3.2 kmh 30.26 in1024.7 mb 0.00 in0.0 mm 0.00 in0.0 mm 0.00 in0.0 mm
06:52 AM 37.5°F3.1°C 25.1°F-3.8°C 61% 1.0 mph S1.6 kmh S 2.0 mph3.2 kmh 30.26 in1024.7 mb 0.00 in0.0 mm 0.00 in0.0 mm 0.00 in0.0 mm
06:57 AM 37.5°F3.1°C 25.1°F-3.8°C 61% 2.0 mph S3.2 kmh S 2.0 mph3.2 kmh 30.26 in1024.7 mb 0.00 in0.0 mm 0.00 in0.0 mm 0.00 in0.0 mm
07:02 AM 37.6°F3.1°C 25.2°F-3.8°C 61% 1.0 mph S1.6 kmh S 2.0 mph3.2 kmh 30.26 in1024.7 mb 0.00 in0.0 mm 0.00 in0.0 mm 0.00 in0.0 mm
07:07 AM 37.6°F3.1°C 25.2°F-3.8°C 61% Calm Calm -- 30.26 in1024.7 mb 0.00 in0.0 mm 0.00 in0.0 mm 0.00 in0.0 mm
07:12 AM 37.7°F3.2°C 25.2°F-3.8°C 61% Calm Calm -- 30.26 in1024.7 mb 0.00 in0.0 mm 0.00 in0.0 mm 0.00 in0.0 mm
07:17 AM 37.7°F3.2°C 25.2°F-3.8°C 61% Calm Calm -- 30.27 in1025.1 mb 0.00 in0.0 mm 0.00 in0.0 mm 0.00 in0.0 mm
07:22 AM 37.8°F3.2°C 25.3°F-3.7°C 61% Calm Calm -- 30.27 in1025.1 mb 0.00 in0.0 mm 0.00 in0.0 mm 0.00 in0.0 mm
07:27 AM 38.0°F3.3°C 25.5°F-3.6°C 61% Calm Calm -- 30.27 in1025.1 mb 0.00 in0.0 mm 0.00 in0.0 mm 0.00 in0.0 mm
07:32 AM 39.1°F3.9°C 27.0°F-2.8°C 62% Calm Calm -- 30.27 in1025.1 mb 0.00 in0.0 mm 0.00 in0.0 mm 0.00 in0.0 mm
07:37 AM 40.1°F4.5°C 27.5°F-2.5°C 61% Calm Calm -- 30.28 in1025.4 mb 0.00 in0.0 mm 0.00 in0.0 mm 0.00 in0.0 mm
07:42 AM 40.9°F4.9°C 27.8°F-2.3°C 60% Calm Calm 2.0 mph3.2 kmh 30.28 in1025.4 mb 0.00 in0.0 mm 0.00 in0.0 mm 0.00 in0.0 mm
07:47 AM 41.6°F5.3°C 28.5°F-1.9°C 60% 1.0 mph SSW1.6 kmh SSW 2.0 mph3.2 kmh 30.28 in1025.4 mb 0.00 in0.0 mm 0.00 in0.0 mm 0.00 in0.0 mm
07:52 AM 42.3°F5.7°C 28.3°F-2.1°C 58% Calm Calm -- 30.28 in1025.4 mb 0.00 in0.0 mm 0.00 in0.0 mm 0.00 in0.0 mm
07:57 AM 43.1°F6.2°C 28.2°F-2.1°C 56% 1.0 mph SW1.6 kmh SW 3.0 mph4.8 kmh 30.28 in1025.4 mb 0.00 in0.0 mm 0.00 in0.0 mm 0.00 in0.0 mm
08:02 AM 43.7°F6.5°C 28.3°F-2.1°C 55% 2.0 mph SW3.2 kmh SW 3.0 mph4.8 kmh 30.29 in1025.7 mb 0.00 in0.0 mm 0.00 in0.0 mm 0.00 in0.0 mm
08:07 AM 44.3°F6.8°C 28.4°F-2.0°C 54% 1.0 mph SW1.6 kmh SW 1.0 mph1.6 kmh 30.28 in1025.4 mb 0.00 in0.0 mm 0.00 in0.0 mm 0.00 in0.0 mm
08:12 AM 45.0°F7.2°C 29.5°F-1.4°C 55% 1.0 mph WSW1.6 kmh WSW 2.0 mph3.2 kmh 30.28 in1025.4 mb 0.00 in0.0 mm 0.00 in0.0 mm 0.00 in0.0 mm
08:17 AM 46.1°F7.8°C 31.4°F-0.3°C 57% 2.0 mph WSW3.2 kmh WSW 3.0 mph4.8 kmh 30.29 in1025.7 mb 0.00 in0.0 mm 0.00 in0.0 mm 0.00 in0.0 mm
08:22 AM 46.7°F8.2°C 30.6°F-0.8°C 54% 5.0 mph W8.0 kmh W 5.0 mph8.0 kmh 30.29 in1025.7 mb 0.00 in0.0 mm 0.00 in0.0 mm 0.00 in0.0 mm
08:27 AM 47.2°F8.4°C 31.0°F-0.6°C 54% 3.0 mph W4.8 kmh W 5.0 mph8.0 kmh 30.29 in1025.7 mb 0.00 in0.0 mm 0.00 in0.0 mm 0.00 in0.0 mm
08:32 AM 47.6°F8.7°C 29.9°F-1.2°C 51% Calm Calm 5.0 mph8.0 kmh 30.29 in1025.7 mb 0.00 in0.0 mm 0.00 in0.0 mm 0.00 in0.0 mm
08:37 AM 48.5°F9.2°C 30.3°F-0.9°C 50% 3.0 mph WNW4.8 kmh WNW 5.0 mph8.0 kmh 30.29 in1025.7 mb 0.00 in0.0 mm 0.00 in0.0 mm 0.00 in0.0 mm
08:42 AM 48.9°F9.4°C 30.6°F-0.8°C 50% 4.0 mph W6.4 kmh W 5.0 mph8.0 kmh 30.29 in1025.7 mb 0.00 in0.0 mm 0.00 in0.0 mm 0.00 in0.0 mm
08:47 AM 49.1°F9.5°C 29.8°F-1.2°C 48% 3.0 mph W4.8 kmh W 6.0 mph9.7 kmh 30.29 in1025.7 mb 0.00 in0.0 mm 0.00 in0.0 mm 0.00 in0.0 mm
08:52 AM 49.5°F9.7°C 29.6°F-1.3°C 47% 3.0 mph WSW4.8 kmh WSW 8.0 mph12.9 kmh 30.29 in1025.7 mb 0.00 in0.0 mm 0.00 in0.0 mm 0.00 in0.0 mm
08:57 AM 50.0°F10.0°C 30.1°F-1.1°C 47% 2.0 mph WSW3.2 kmh WSW 8.0 mph12.9 kmh 30.29 in1025.7 mb 0.00 in0.0 mm 0.00 in0.0 mm 0.00 in0.0 mm
09:02 AM 50.4°F10.2°C 30.4°F-0.9°C 47% 4.0 mph WSW6.4 kmh WSW 8.0 mph12.9 kmh 30.29 in1025.7 mb 0.00 in0.0 mm 0.00 in0.0 mm 0.00 in0.0 mm
09:07 AM 50.7°F10.4°C 30.7°F-0.7°C 47% 4.0 mph W6.4 kmh W 8.0 mph12.9 kmh 30.29 in1025.7 mb 0.00 in0.0 mm 0.00 in0.0 mm 0.00 in0.0 mm
09:12 AM 51.1°F10.6°C 29.9°F-1.2°C 45% 6.0 mph WSW9.7 kmh WSW 7.0 mph11.3 kmh 30.29 in1025.7 mb 0.00 in0.0 mm 0.00 in0.0 mm 0.00 in0.0 mm
09:17 AM 51.3°F10.7°C 30.7°F-0.7°C 46% 6.0 mph WNW9.7 kmh WNW 7.0 mph11.3 kmh 30.29 in1025.7 mb 0.00 in0.0 mm 0.00 in0.0 mm 0.00 in0.0 mm
09:22 AM 51.8°F11.0°C 31.7°F-0.2°C 47% 3.0 mph NW4.8 kmh NW 7.0 mph11.3 kmh 30.29 in1025.7 mb 0.00 in0.0 mm 0.00 in0.0 mm 0.00 in0.0 mm
09:27 AM 52.3°F11.3°C 31.0°F-0.6°C 45% 3.0 mph W4.8 kmh W 8.0 mph12.9 kmh 30.29 in1025.7 mb 0.00 in0.0 mm 0.00 in0.0 mm 0.00 in0.0 mm
09:32 AM 52.6°F11.4°C 31.3°F-0.4°C 45% 3.0 mph NW4.8 kmh NW 8.0 mph12.9 kmh 30.29 in1025.7 mb 0.00 in0.0 mm 0.00 in0.0 mm 0.00 in0.0 mm
09:37 AM 52.9°F11.6°C 31.0°F-0.6°C 44% 4.0 mph W6.4 kmh W 8.0 mph12.9 kmh 30.29 in1025.7 mb 0.00 in0.0 mm 0.00 in0.0 mm 0.00 in0.0 mm
09:42 AM 53.2°F11.8°C 31.3°F-0.4°C 44% 3.0 mph WNW4.8 kmh WNW 8.0 mph12.9 kmh 30.29 in1025.7 mb 0.00 in0.0 mm 0.00 in0.0 mm 0.00 in0.0 mm
09:47 AM 53.6°F12.0°C 29.8°F-1.2°C 41% 2.0 mph W3.2 kmh W 12.0 mph19.3 kmh 30.29 in1025.7 mb 0.00 in0.0 mm 0.00 in0.0 mm 0.00 in0.0 mm
09:52 AM 53.9°F12.2°C 30.1°F-1.1°C 41% 4.0 mph NW6.4 kmh NW 12.0 mph19.3 kmh 30.29 in1025.7 mb 0.00 in0.0 mm 0.00 in0.0 mm 0.00 in0.0 mm
09:57 AM 54.4°F12.4°C 30.5°F-0.8°C 41% 4.0 mph WSW6.4 kmh WSW 12.0 mph19.3 kmh 30.29 in1025.7 mb 0.00 in0.0 mm 0.00 in0.0 mm 0.00 in0.0 mm
10:02 AM 55.0°F12.8°C 31.7°F-0.2°C 42% 4.0 mph W6.4 kmh W 12.0 mph19.3 kmh 30.29 in1025.7 mb 0.00 in0.0 mm 0.00 in0.0 mm 0.00 in0.0 mm
10:07 AM 55.4°F13.0°C 32.0°F0.0°C 42% 4.0 mph W6.4 kmh W 10.0 mph16.1 kmh 30.29 in1025.7 mb 0.00 in0.0 mm 0.00 in0.0 mm 0.00 in0.0 mm
10:12 AM 55.5°F13.1°C 29.5°F-1.4°C 38% 6.0 mph W9.7 kmh W 10.0 mph16.1 kmh 30.29 in1025.7 mb 0.00 in0.0 mm 0.00 in0.0 mm 0.00 in0.0 mm
10:17 AM 55.6°F13.1°C 30.9°F-0.6°C 40% 2.0 mph WNW3.2 kmh WNW 9.0 mph14.5 kmh 30.29 in1025.7 mb 0.00 in0.0 mm 0.00 in0.0 mm 0.00 in0.0 mm
10:22 AM 55.6°F13.1°C 28.9°F-1.7°C 37% 6.0 mph WNW9.7 kmh WNW 11.0 mph17.7 kmh 30.29 in1025.7 mb 0.00 in0.0 mm 0.00 in0.0 mm 0.00 in0.0 mm
10:27 AM 56.0°F13.3°C 30.6°F-0.8°C 39% 3.0 mph W4.8 kmh W 11.0 mph17.7 kmh 30.29 in1025.7 mb 0.00 in0.0 mm 0.00 in0.0 mm 0.00 in0.0 mm
10:32 AM 56.5°F13.6°C 29.0°F-1.7°C 36% 3.0 mph NW4.8 kmh NW 11.0 mph17.7 kmh 30.29 in1025.7 mb 0.00 in0.0 mm 0.00 in0.0 mm 0.00 in0.0 mm
10:37 AM 56.2°F13.4°C 29.4°F-1.4°C 37% 3.0 mph NW4.8 kmh NW 11.0 mph17.7 kmh 30.29 in1025.7 mb 0.00 in0.0 mm 0.00 in0.0 mm 0.00 in0.0 mm
10:42 AM 56.6°F13.7°C 30.5°F-0.8°C 38% 4.0 mph NW6.4 kmh NW 10.0 mph16.1 kmh 30.29 in1025.7 mb 0.00 in0.0 mm 0.00 in0.0 mm 0.00 in0.0 mm
10:47 AM 56.8°F13.8°C 30.0°F-1.1°C 37% 6.0 mph WNW9.7 kmh WNW 10.0 mph16.1 kmh 30.29 in1025.7 mb 0.00 in0.0 mm 0.00 in0.0 mm 0.00 in0.0 mm
10:52 AM 57.0°F13.9°C 29.4°F-1.4°C 36% 4.0 mph WSW6.4 kmh WSW 9.0 mph14.5 kmh 30.29 in1025.7 mb 0.00 in0.0 mm 0.00 in0.0 mm 0.00 in0.0 mm
10:57 AM 57.6°F14.2°C 31.4°F-0.3°C 38% 6.0 mph NW9.7 kmh NW 9.0 mph14.5 kmh 30.29 in1025.7 mb 0.00 in0.0 mm 0.00 in0.0 mm 0.00 in0.0 mm
11:02 AM 57.6°F14.2°C 27.7°F-2.4°C 33% 5.0 mph W8.0 kmh W 14.0 mph22.5 kmh 30.28 in1025.4 mb 0.00 in0.0 mm 0.00 in0.0 mm 0.00 in0.0 mm
11:07 AM 57.9°F14.4°C 28.7°F-1.8°C 34% 9.0 mph WSW14.5 kmh WSW 14.0 mph22.5 kmh 30.28 in1025.4 mb 0.00 in0.0 mm 0.00 in0.0 mm 0.00 in0.0 mm
11:12 AM 58.1°F14.5°C 28.9°F-1.7°C 34% 7.0 mph W11.3 kmh W 14.0 mph22.5 kmh 30.28 in1025.4 mb 0.00 in0.0 mm 0.00 in0.0 mm 0.00 in0.0 mm
11:17 AM 58.1°F14.5°C 28.1°F-2.2°C 33% 4.0 mph W6.4 kmh W 14.0 mph22.5 kmh 30.28 in1025.4 mb 0.00 in0.0 mm 0.00 in0.0 mm 0.00 in0.0 mm
11:22 AM 58.4°F14.7°C 29.2°F-1.6°C 34% 6.0 mph W9.7 kmh W 11.0 mph17.7 kmh 30.28 in1025.4 mb 0.00 in0.0 mm 0.00 in0.0 mm 0.00 in0.0 mm
11:27 AM 58.6°F14.8°C 27.8°F-2.3°C 32% 6.0 mph NW9.7 kmh NW 11.0 mph17.7 kmh 30.28 in1025.4 mb 0.00 in0.0 mm 0.00 in0.0 mm 0.00 in0.0 mm
11:32 AM 58.7°F14.8°C 26.2°F-3.2°C 30% 3.0 mph WSW4.8 kmh WSW 10.0 mph16.1 kmh 30.28 in1025.4 mb 0.00 in0.0 mm 0.00 in0.0 mm 0.00 in0.0 mm
11:37 AM 58.7°F14.8°C 27.1°F-2.7°C 31% 5.0 mph WNW8.0 kmh WNW 12.0 mph19.3 kmh 30.28 in1025.4 mb 0.00 in0.0 mm 0.00 in0.0 mm 0.00 in0.0 mm
11:42 AM 59.0°F15.0°C 29.7°F-1.3°C 34% 5.0 mph WSW8.0 kmh WSW 12.0 mph19.3 kmh 30.28 in1025.4 mb 0.00 in0.0 mm 0.00 in0.0 mm 0.00 in0.0 mm
11:47 AM 59.6°F15.3°C 28.7°F-1.8°C 32% 4.0 mph W6.4 kmh W 12.0 mph19.3 kmh 30.28 in1025.4 mb 0.00 in0.0 mm 0.00 in0.0 mm 0.00 in0.0 mm
11:52 AM 59.5°F15.3°C 26.9°F-2.8°C 30% 5.0 mph W8.0 kmh W 12.0 mph19.3 kmh 30.27 in1025.1 mb 0.00 in0.0 mm 0.00 in0.0 mm 0.00 in0.0 mm
11:57 AM 59.5°F15.3°C 26.0°F-3.3°C 29% 8.0 mph WNW12.9 kmh WNW 15.0 mph24.1 kmh 30.27 in1025.1 mb 0.00 in0.0 mm 0.00 in0.0 mm 0.00 in0.0 mm
12:02 PM 59.8°F15.4°C 26.3°F-3.2°C 29% 4.0 mph WSW6.4 kmh WSW 15.0 mph24.1 kmh 30.27 in1025.1 mb 0.00 in0.0 mm 0.00 in0.0 mm 0.00 in0.0 mm
12:07 PM 60.0°F15.6°C 25.5°F-3.6°C 28% 9.0 mph SW14.5 kmh SW 15.0 mph24.1 kmh 30.27 in1025.1 mb 0.00 in0.0 mm 0.00 in0.0 mm 0.00 in0.0 mm
12:12 PM 60.6°F15.9°C 27.0°F-2.8°C 29% 7.0 mph WNW11.3 kmh WNW 15.0 mph24.1 kmh 30.27 in1025.1 mb 0.00 in0.0 mm 0.00 in0.0 mm 0.00 in0.0 mm
12:17 PM 60.9°F16.1°C 25.4°F-3.7°C 27% 6.0 mph WNW9.7 kmh WNW 14.0 mph22.5 kmh 30.27 in1025.1 mb 0.00 in0.0 mm 0.00 in0.0 mm 0.00 in0.0 mm
12:22 PM 60.8°F16.0°C 24.3°F-4.3°C 26% 6.0 mph WSW9.7 kmh WSW 14.0 mph22.5 kmh 30.27 in1025.1 mb 0.00 in0.0 mm 0.00 in0.0 mm 0.00 in0.0 mm
12:27 PM 61.1°F16.2°C 25.5°F-3.6°C 27% 7.0 mph WSW11.3 kmh WSW 12.0 mph19.3 kmh 30.26 in1024.7 mb 0.00 in0.0 mm 0.00 in0.0 mm 0.00 in0.0 mm
12:32 PM 61.1°F16.2°C 25.5°F-3.6°C 27% 9.0 mph W14.5 kmh W 12.0 mph19.3 kmh 30.26 in1024.7 mb 0.00 in0.0 mm 0.00 in0.0 mm 0.00 in0.0 mm
12:37 PM 61.0°F16.1°C 25.4°F-3.7°C 27% 8.0 mph WNW12.9 kmh WNW 14.0 mph22.5 kmh 30.26 in1024.7 mb 0.00 in0.0 mm 0.00 in0.0 mm 0.00 in0.0 mm
12:42 PM 61.5°F16.4°C 25.9°F-3.4°C 27% 6.0 mph W9.7 kmh W 16.0 mph25.7 kmh 30.26 in1024.7 mb 0.00 in0.0 mm 0.00 in0.0 mm 0.00 in0.0 mm
12:47 PM 61.6°F16.4°C 25.9°F-3.4°C 27% 4.0 mph W6.4 kmh W 16.0 mph25.7 kmh 30.26 in1024.7 mb 0.00 in0.0 mm 0.00 in0.0 mm 0.00 in0.0 mm
12:52 PM 61.6°F16.4°C 25.9°F-3.4°C 27% 8.0 mph WSW12.9 kmh WSW 16.0 mph25.7 kmh 30.26 in1024.7 mb 0.00 in0.0 mm 0.00 in0.0 mm 0.00 in0.0 mm
12:57 PM 61.6°F16.4°C 26.9°F-2.8°C 28% 11.0 mph NW17.7 kmh NW 18.0 mph29.0 kmh 30.26 in1024.7 mb 0.00 in0.0 mm 0.00 in0.0 mm 0.00 in0.0 mm
01:02 PM 61.1°F16.2°C 26.5°F-3.1°C 28% 8.0 mph W12.9 kmh W 18.0 mph29.0 kmh 30.25 in1024.4 mb 0.00 in0.0 mm 0.00 in0.0 mm 0.00 in0.0 mm
01:07 PM 61.6°F16.4°C 26.9°F-2.8°C 28% 6.0 mph NW9.7 kmh NW 18.0 mph29.0 kmh 30.25 in1024.4 mb 0.00 in0.0 mm 0.00 in0.0 mm 0.00 in0.0 mm
01:12 PM 61.6°F16.4°C 27.8°F-2.3°C 29% 11.0 mph WNW17.7 kmh WNW 18.0 mph29.0 kmh 30.25 in1024.4 mb 0.00 in0.0 mm 0.00 in0.0 mm 0.00 in0.0 mm
01:17 PM 61.4°F16.3°C 27.6°F-2.4°C 29% 10.0 mph WNW16.1 kmh WNW 16.0 mph25.7 kmh 30.24 in1024.0 mb 0.00 in0.0 mm 0.00 in0.0 mm 0.00 in0.0 mm
01:22 PM 61.8°F16.6°C 28.0°F-2.2°C 29% 3.0 mph NNW4.8 kmh NNW 16.0 mph25.7 kmh 30.24 in1024.0 mb 0.00 in0.0 mm 0.00 in0.0 mm 0.00 in0.0 mm
01:27 PM 62.4°F16.9°C 30.2°F-1.0°C 31% 7.0 mph WNW11.3 kmh WNW 13.0 mph20.9 kmh 30.24 in1024.0 mb 0.00 in0.0 mm 0.00 in0.0 mm 0.00 in0.0 mm
01:32 PM 62.2°F16.8°C 27.4°F-2.6°C 28% 4.0 mph WSW6.4 kmh WSW 13.0 mph20.9 kmh 30.24 in1024.0 mb 0.00 in0.0 mm 0.00 in0.0 mm 0.00 in0.0 mm
01:37 PM 62.4°F16.9°C 28.5°F-1.9°C 29% 8.0 mph WSW12.9 kmh WSW 9.0 mph14.5 kmh 30.23 in1023.7 mb 0.00 in0.0 mm 0.00 in0.0 mm 0.00 in0.0 mm
01:42 PM 62.7°F17.1°C 29.6°F-1.3°C 30% 6.0 mph WSW9.7 kmh WSW 10.0 mph16.1 kmh 30.23 in1023.7 mb 0.00 in0.0 mm 0.00 in0.0 mm 0.00 in0.0 mm
01:47 PM 62.5°F16.9°C 27.7°F-2.4°C 28% 4.0 mph WSW6.4 kmh WSW 10.0 mph16.1 kmh 30.23 in1023.7 mb 0.00 in0.0 mm 0.00 in0.0 mm 0.00 in0.0 mm
01:52 PM 62.7°F17.1°C 28.8°F-1.8°C 29% 4.0 mph W6.4 kmh W 12.0 mph19.3 kmh 30.23 in1023.7 mb 0.00 in0.0 mm 0.00 in0.0 mm 0.00 in0.0 mm
01:57 PM 63.2°F17.3°C 30.1°F-1.1°C 30% Calm Calm 12.0 mph19.3 kmh 30.23 in1023.7 mb 0.00 in0.0 mm 0.00 in0.0 mm 0.00 in0.0 mm
02:02 PM 63.5°F17.5°C 30.3°F-0.9°C 30% 5.0 mph W8.0 kmh W 12.0 mph19.3 kmh 30.23 in1023.7 mb 0.00 in0.0 mm 0.00 in0.0 mm 0.00 in0.0 mm
02:07 PM 63.6°F17.6°C 27.6°F-2.4°C 27% 2.0 mph WNW3.2 kmh WNW 12.0 mph19.3 kmh 30.23 in1023.7 mb 0.00 in0.0 mm 0.00 in0.0 mm 0.00 in0.0 mm
02:12 PM 64.1°F17.8°C 27.1°F-2.7°C 26% 5.0 mph WNW8.0 kmh WNW 11.0 mph17.7 kmh 30.23 in1023.7 mb 0.00 in0.0 mm 0.00 in0.0 mm 0.00 in0.0 mm
02:17 PM 63.5°F17.5°C 27.6°F-2.4°C 27% 3.0 mph WSW4.8 kmh WSW 7.0 mph11.3 kmh 30.22 in1023.4 mb 0.00 in0.0 mm 0.00 in0.0 mm 0.00 in0.0 mm
02:22 PM 63.7°F17.6°C 27.7°F-2.4°C 27% 4.0 mph WSW6.4 kmh WSW 10.0 mph16.1 kmh 30.22 in1023.4 mb 0.00 in0.0 mm 0.00 in0.0 mm 0.00 in0.0 mm
02:27 PM 63.6°F17.6°C 26.7°F-2.9°C 26% 10.0 mph SW16.1 kmh SW 11.0 mph17.7 kmh 30.22 in1023.4 mb 0.00 in0.0 mm 0.00 in0.0 mm 0.00 in0.0 mm
02:32 PM 63.9°F17.7°C 29.8°F-1.2°C 29% 4.0 mph NNW6.4 kmh NNW 11.0 mph17.7 kmh 30.22 in1023.4 mb 0.00 in0.0 mm 0.00 in0.0 mm 0.00 in0.0 mm
02:37 PM 64.3°F17.9°C 30.1°F-1.1°C 29% 6.0 mph NNW9.7 kmh NNW 11.0 mph17.7 kmh 30.21 in1023.0 mb 0.00 in0.0 mm 0.00 in0.0 mm 0.00 in0.0 mm
02:42 PM 64.3°F17.9°C 28.2°F-2.1°C 27% 3.0 mph W4.8 kmh W 11.0 mph17.7 kmh 30.21 in1023.0 mb 0.00 in0.0 mm 0.00 in0.0 mm 0.00 in0.0 mm
02:47 PM 64.6°F18.1°C 30.4°F-0.9°C 29% 6.0 mph NW9.7 kmh NW 11.0 mph17.7 kmh 30.21 in1023.0 mb 0.00 in0.0 mm 0.00 in0.0 mm 0.00 in0.0 mm
02:52 PM 64.4°F18.0°C 29.3°F-1.5°C 28% 6.0 mph W9.7 kmh W 11.0 mph17.7 kmh 30.21 in1023.0 mb 0.00 in0.0 mm 0.00 in0.0 mm 0.00 in0.0 mm
02:57 PM 64.5°F18.1°C 28.4°F-2.0°C 27% 6.0 mph W9.7 kmh W 13.0 mph20.9 kmh 30.21 in1023.0 mb 0.00 in0.0 mm 0.00 in0.0 mm 0.00 in0.0 mm
03:02 PM 64.8°F18.2°C 28.7°F-1.8°C 27% 4.0 mph W6.4 kmh W 13.0 mph20.9 kmh 30.21 in1023.0 mb 0.00 in0.0 mm 0.00 in0.0 mm 0.00 in0.0 mm
03:07 PM 64.8°F18.2°C 27.7°F-2.4°C 26% 4.0 mph W6.4 kmh W 13.0 mph20.9 kmh 30.20 in1022.7 mb 0.00 in0.0 mm 0.00 in0.0 mm 0.00 in0.0 mm
03:12 PM 65.1°F18.4°C 27.9°F-2.3°C 26% 8.0 mph WNW12.9 kmh WNW 13.0 mph20.9 kmh 30.20 in1022.7 mb 0.00 in0.0 mm 0.00 in0.0 mm 0.00 in0.0 mm
03:17 PM 64.9°F18.3°C 29.7°F-1.3°C 28% 4.0 mph WNW6.4 kmh WNW 11.0 mph17.7 kmh 30.20 in1022.7 mb 0.00 in0.0 mm 0.00 in0.0 mm 0.00 in0.0 mm
03:22 PM 65.2°F18.4°C 29.0°F-1.7°C 27% 3.0 mph WSW4.8 kmh WSW 11.0 mph17.7 kmh 30.20 in1022.7 mb 0.00 in0.0 mm 0.00 in0.0 mm 0.00 in0.0 mm
03:27 PM 65.5°F18.6°C 28.3°F-2.1°C 26% Calm Calm 9.0 mph14.5 kmh 30.20 in1022.7 mb 0.00 in0.0 mm 0.00 in0.0 mm 0.00 in0.0 mm
03:32 PM 65.6°F18.7°C 30.3°F-0.9°C 28% 6.0 mph W9.7 kmh W 9.0 mph14.5 kmh 30.19 in1022.4 mb 0.00 in0.0 mm 0.00 in0.0 mm 0.00 in0.0 mm
03:37 PM 65.7°F18.7°C 30.4°F-0.9°C 28% 7.0 mph WNW11.3 kmh WNW 8.0 mph12.9 kmh 30.19 in1022.4 mb 0.00 in0.0 mm 0.00 in0.0 mm 0.00 in0.0 mm
03:42 PM 65.5°F18.6°C 28.3°F-2.1°C 26% Calm Calm 9.0 mph14.5 kmh 30.19 in1022.4 mb 0.00 in0.0 mm 0.00 in0.0 mm 0.00 in0.0 mm
03:47 PM 65.4°F18.6°C 30.1°F-1.1°C 28% 3.0 mph W4.8 kmh W 9.0 mph14.5 kmh 30.19 in1022.4 mb 0.00 in0.0 mm 0.00 in0.0 mm 0.00 in0.0 mm
03:52 PM 66.4°F19.1°C 31.0°F-0.6°C 28% 5.0 mph WNW8.0 kmh WNW 9.0 mph14.5 kmh 30.18 in1022.0 mb 0.00 in0.0 mm 0.00 in0.0 mm 0.00 in0.0 mm
03:57 PM 65.8°F18.8°C 28.5°F-1.9°C 26% 2.0 mph W3.2 kmh W 10.0 mph16.1 kmh 30.18 in1022.0 mb 0.00 in0.0 mm 0.00 in0.0 mm 0.00 in0.0 mm
04:02 PM 65.7°F18.7°C 29.4°F-1.4°C 27% 3.0 mph NW4.8 kmh NW 10.0 mph16.1 kmh 30.18 in1022.0 mb 0.00 in0.0 mm 0.00 in0.0 mm 0.00 in0.0 mm
04:07 PM 65.6°F18.7°C 27.3°F-2.6°C 25% 8.0 mph WNW12.9 kmh WNW 10.0 mph16.1 kmh 30.18 in1022.0 mb 0.00 in0.0 mm 0.00 in0.0 mm 0.00 in0.0 mm
04:12 PM 65.3°F18.5°C 27.1°F-2.7°C 25% Calm Calm 10.0 mph16.1 kmh 30.18 in1022.0 mb 0.00 in0.0 mm 0.00 in0.0 mm 0.00 in0.0 mm
04:17 PM 65.8°F18.8°C 30.5°F-0.8°C 28% 2.0 mph NNW3.2 kmh NNW 8.0 mph12.9 kmh 30.18 in1022.0 mb 0.00 in0.0 mm 0.00 in0.0 mm 0.00 in0.0 mm
04:22 PM 65.8°F18.8°C 29.5°F-1.4°C 27% 2.0 mph NNE3.2 kmh NNE 8.0 mph12.9 kmh 30.17 in1021.7 mb 0.00 in0.0 mm 0.00 in0.0 mm 0.00 in0.0 mm
04:27 PM 65.4°F18.6°C 30.1°F-1.1°C 28% Calm Calm 8.0 mph12.9 kmh 30.17 in1021.7 mb 0.00 in0.0 mm 0.00 in0.0 mm 0.00 in0.0 mm
04:32 PM 65.4°F18.6°C 31.1°F-0.5°C 29% 1.0 mph NW1.6 kmh NW 8.0 mph12.9 kmh 30.17 in1021.7 mb 0.00 in0.0 mm 0.00 in0.0 mm 0.00 in0.0 mm
04:37 PM 65.2°F18.4°C 29.0°F-1.7°C 27% 1.0 mph N1.6 kmh N 8.0 mph12.9 kmh 30.17 in1021.7 mb 0.00 in0.0 mm 0.00 in0.0 mm 0.00 in0.0 mm
04:42 PM 64.9°F18.3°C 30.6°F-0.8°C 29% Calm Calm 8.0 mph12.9 kmh 30.16 in1021.3 mb 0.00 in0.0 mm 0.00 in0.0 mm 0.00 in0.0 mm
04:47 PM 65.0°F18.3°C 29.8°F-1.2°C 28% 1.0 mph NNW1.6 kmh NNW 5.0 mph8.0 kmh 30.16 in1021.3 mb 0.00 in0.0 mm 0.00 in0.0 mm 0.00 in0.0 mm
04:52 PM 65.0°F18.3°C 29.8°F-1.2°C 28% 3.0 mph NW4.8 kmh NW 5.0 mph8.0 kmh 30.16 in1021.3 mb 0.00 in0.0 mm 0.00 in0.0 mm 0.00 in0.0 mm
04:57 PM 64.9°F18.3°C 28.7°F-1.8°C 27% Calm Calm 4.0 mph6.4 kmh 30.16 in1021.3 mb 0.00 in0.0 mm 0.00 in0.0 mm 0.00 in0.0 mm
05:02 PM 65.0°F18.3°C 29.8°F-1.2°C 28% Calm Calm 5.0 mph8.0 kmh 30.16 in1021.3 mb 0.00 in0.0 mm 0.00 in0.0 mm 0.00 in0.0 mm
05:07 PM 65.2°F18.4°C 30.0°F-1.1°C 28% 1.0 mph NNW1.6 kmh NNW 2.0 mph3.2 kmh 30.16 in1021.3 mb 0.00 in0.0 mm 0.00 in0.0 mm 0.00 in0.0 mm
05:12 PM 64.9°F18.3°C 28.7°F-1.8°C 27% Calm Calm -- 30.16 in1021.3 mb 0.00 in0.0 mm 0.00 in0.0 mm 0.00 in0.0 mm
05:17 PM 65.1°F18.4°C 29.9°F-1.2°C 28% Calm Calm 1.0 mph1.6 kmh 30.15 in1021.0 mb 0.00 in0.0 mm 0.00 in0.0 mm 0.00 in0.0 mm
05:22 PM 65.2°F18.4°C 28.0°F-2.2°C 26% Calm Calm -- 30.15 in1021.0 mb 0.00 in0.0 mm 0.00 in0.0 mm 0.00 in0.0 mm
05:27 PM 65.1°F18.4°C 30.8°F-0.7°C 29% Calm Calm -- 30.15 in1021.0 mb 0.00 in0.0 mm 0.00 in0.0 mm 0.00 in0.0 mm
05:32 PM 65.0°F18.3°C 28.8°F-1.8°C 27% 2.0 mph WNW3.2 kmh WNW 2.0 mph3.2 kmh 30.15 in1021.0 mb 0.00 in0.0 mm 0.00 in0.0 mm 0.00 in0.0 mm
05:37 PM 65.2°F18.4°C 27.0°F-2.8°C 25% Calm Calm 4.0 mph6.4 kmh 30.15 in1021.0 mb 0.00 in0.0 mm 0.00 in0.0 mm 0.00 in0.0 mm
05:42 PM 65.6°F18.7°C 28.3°F-2.1°C 26% Calm Calm 6.0 mph9.7 kmh 30.15 in1021.0 mb 0.00 in0.0 mm 0.00 in0.0 mm 0.00 in0.0 mm
05:47 PM 65.8°F18.8°C 29.5°F-1.4°C 27% Calm Calm 4.0 mph6.4 kmh 30.14 in1020.7 mb 0.00 in0.0 mm 0.00 in0.0 mm 0.00 in0.0 mm
05:52 PM 65.9°F18.8°C 29.6°F-1.3°C 27% Calm Calm -- 30.14 in1020.7 mb 0.00 in0.0 mm 0.00 in0.0 mm 0.00 in0.0 mm
05:57 PM 65.8°F18.8°C 29.5°F-1.4°C 27% 3.0 mph NE4.8 kmh NE 3.0 mph4.8 kmh 30.14 in1020.7 mb 0.00 in0.0 mm 0.00 in0.0 mm 0.00 in0.0 mm
06:02 PM 65.6°F18.7°C 31.2°F-0.4°C 29% 2.0 mph NW3.2 kmh NW 2.0 mph3.2 kmh 30.14 in1020.7 mb 0.00 in0.0 mm 0.00 in0.0 mm 0.00 in0.0 mm
06:07 PM 65.5°F18.6°C 29.3°F-1.5°C 27% Calm Calm -- 30.14 in1020.7 mb 0.00 in0.0 mm 0.00 in0.0 mm 0.00 in0.0 mm
06:12 PM 65.5°F18.6°C 31.1°F-0.5°C 29% Calm Calm 3.0 mph4.8 kmh 30.14 in1020.7 mb 0.00 in0.0 mm 0.00 in0.0 mm 0.00 in0.0 mm
06:17 PM 65.6°F18.7°C 30.3°F-0.9°C 28% 2.0 mph NNW3.2 kmh NNW 4.0 mph6.4 kmh 30.14 in1020.7 mb 0.00 in0.0 mm 0.00 in0.0 mm 0.00 in0.0 mm
06:22 PM 65.6°F18.7°C 30.3°F-0.9°C 28% 1.0 mph N1.6 kmh N 4.0 mph6.4 kmh 30.14 in1020.7 mb 0.00 in0.0 mm 0.00 in0.0 mm 0.00 in0.0 mm
06:27 PM 65.4°F18.6°C 29.2°F-1.6°C 27% Calm Calm 6.0 mph9.7 kmh 30.14 in1020.7 mb 0.00 in0.0 mm 0.00 in0.0 mm 0.00 in0.0 mm
06:32 PM 65.3°F18.5°C 30.0°F-1.1°C 28% 2.0 mph N3.2 kmh N 4.0 mph6.4 kmh 30.13 in1020.3 mb 0.00 in0.0 mm 0.00 in0.0 mm 0.00 in0.0 mm
06:37 PM 65.3°F18.5°C 31.0°F-0.6°C 29% Calm Calm 2.0 mph3.2 kmh 30.13 in1020.3 mb 0.00 in0.0 mm 0.00 in0.0 mm 0.00 in0.0 mm
06:42 PM 65.3°F18.5°C 29.1°F-1.6°C 27% Calm Calm -- 30.13 in1020.3 mb 0.00 in0.0 mm 0.00 in0.0 mm 0.00 in0.0 mm
06:47 PM 64.9°F18.3°C 31.5°F-0.3°C 30% 2.0 mph N3.2 kmh N 4.0 mph6.4 kmh 30.13 in1020.3 mb 0.00 in0.0 mm 0.00 in0.0 mm 0.00 in0.0 mm
06:52 PM 64.8°F18.2°C 31.4°F-0.3°C 30% 2.0 mph NNE3.2 kmh NNE 3.0 mph4.8 kmh 30.13 in1020.3 mb 0.00 in0.0 mm 0.00 in0.0 mm 0.00 in0.0 mm
06:57 PM 64.6°F18.1°C 29.5°F-1.4°C 28% Calm Calm -- 30.12 in1020.0 mb 0.00 in0.0 mm 0.00 in0.0 mm 0.00 in0.0 mm
07:02 PM 64.5°F18.1°C 29.4°F-1.4°C 28% Calm Calm -- 30.12 in1020.0 mb 0.00 in0.0 mm 0.00 in0.0 mm 0.00 in0.0 mm
07:07 PM 64.4°F18.0°C 28.3°F-2.1°C 27% Calm Calm -- 30.12 in1020.0 mb 0.00 in0.0 mm 0.00 in0.0 mm 0.00 in0.0 mm
07:12 PM 64.2°F17.9°C 29.1°F-1.6°C 28% Calm Calm -- 30.12 in1020.0 mb 0.00 in0.0 mm 0.00 in0.0 mm 0.00 in0.0 mm
07:17 PM 64.1°F17.8°C 29.0°F-1.7°C 28% Calm Calm -- 30.12 in1020.0 mb 0.00 in0.0 mm 0.00 in0.0 mm 0.00 in0.0 mm
07:22 PM 63.7°F17.6°C 28.7°F-1.8°C 28% Calm Calm -- 30.12 in1020.0 mb 0.00 in0.0 mm 0.00 in0.0 mm 0.00 in0.0 mm
07:32 PM 63.2°F17.3°C 30.1°F-1.1°C 30% Calm Calm -- 30.12 in1020.0 mb 0.00 in0.0 mm 0.00 in0.0 mm 0.00 in0.0 mm
07:47 PM 63.1°F17.3°C 29.1°F-1.6°C 29% Calm Calm -- 30.11 in1019.6 mb 0.00 in0.0 mm 0.00 in0.0 mm 0.00 in0.0 mm
08:02 PM 62.2°F16.8°C 32.5°F0.3°C 34% Calm Calm -- 30.11 in1019.6 mb 0.00 in0.0 mm 0.00 in0.0 mm 0.00 in0.0 mm
08:12 PM 61.3°F16.3°C 30.1°F-1.1°C 32% Calm Calm -- 30.11 in1019.6 mb 0.00 in0.0 mm 0.00 in0.0 mm 0.00 in0.0 mm
08:57 PM 58.4°F14.7°C 32.1°F0.1°C 38% Calm Calm -- 30.10 in1019.3 mb 0.00 in0.0 mm 0.00 in0.0 mm 0.00 in0.0 mm
09:22 PM 55.6°F13.1°C 30.3°F-0.9°C 39% Calm Calm -- 30.10 in1019.3 mb 0.00 in0.0 mm 0.00 in0.0 mm 0.00 in0.0 mm
09:27 PM 55.0°F12.8°C 30.4°F-0.9°C 40% Calm Calm -- 30.10 in1019.3 mb 0.00 in0.0 mm 0.00 in0.0 mm 0.00 in0.0 mm
09:42 PM 54.0°F12.2°C 32.0°F0.0°C 44% Calm Calm -- 30.11 in1019.6 mb 0.00 in0.0 mm 0.00 in0.0 mm 0.00 in0.0 mm
10:12 PM 51.9°F11.1°C 32.9°F0.5°C 49% Calm Calm -- 30.10 in1019.3 mb 0.00 in0.0 mm 0.00 in0.0 mm 0.00 in0.0 mm
10:27 PM 51.2°F10.7°C 31.1°F-0.5°C 47% 1.0 mph S1.6 kmh S 3.0 mph4.8 kmh 30.10 in1019.3 mb 0.00 in0.0 mm 0.00 in0.0 mm 0.00 in0.0 mm
10:32 PM 51.1°F10.6°C 31.1°F-0.5°C 47% 3.0 mph S4.8 kmh S 5.0 mph8.0 kmh 30.10 in1019.3 mb 0.00 in0.0 mm 0.00 in0.0 mm 0.00 in0.0 mm
10:37 PM 51.4°F10.8°C 31.3°F-0.4°C 47% 4.0 mph S6.4 kmh S 5.0 mph8.0 kmh 30.10 in1019.3 mb 0.00 in0.0 mm 0.00 in0.0 mm 0.00 in0.0 mm
10:57 PM 53.4°F11.9°C 30.8°F-0.7°C 43% 4.0 mph S6.4 kmh S 6.0 mph9.7 kmh 30.09 in1019.0 mb 0.00 in0.0 mm 0.00 in0.0 mm 0.00 in0.0 mm
11:02 PM 53.9°F12.2°C 30.1°F-1.1°C 41% 4.0 mph S6.4 kmh S 7.0 mph11.3 kmh 30.09 in1019.0 mb 0.00 in0.0 mm 0.00 in0.0 mm 0.00 in0.0 mm
11:12 PM 55.0°F12.8°C 29.7°F-1.3°C 39% 5.0 mph S8.0 kmh S 7.0 mph11.3 kmh 30.09 in1019.0 mb 0.00 in0.0 mm 0.00 in0.0 mm 0.00 in0.0 mm
11:17 PM 55.4°F13.0°C 29.4°F-1.4°C 38% 2.0 mph SSW3.2 kmh SSW 7.0 mph11.3 kmh 30.09 in1019.0 mb 0.00 in0.0 mm 0.00 in0.0 mm 0.00 in0.0 mm
11:22 PM 55.8°F13.2°C 29.1°F-1.6°C 37% 5.0 mph S8.0 kmh S 8.0 mph12.9 kmh 30.09 in1019.0 mb 0.00 in0.0 mm 0.00 in0.0 mm 0.00 in0.0 mm
11:27 PM 56.0°F13.3°C 28.6°F-1.9°C 36% 5.0 mph S8.0 kmh S 8.0 mph12.9 kmh 30.09 in1019.0 mb 0.00 in0.0 mm 0.00 in0.0 mm 0.00 in0.0 mm
11:32 PM 56.1°F13.4°C 28.7°F-1.8°C 36% 5.0 mph S8.0 kmh S 8.0 mph12.9 kmh 30.09 in1019.0 mb 0.00 in0.0 mm 0.00 in0.0 mm 0.00 in0.0 mm
11:37 PM 56.1°F13.4°C 28.7°F-1.8°C 36% 5.0 mph S8.0 kmh S 8.0 mph12.9 kmh 30.09 in1019.0 mb 0.00 in0.0 mm 0.00 in0.0 mm 0.00 in0.0 mm
11:42 PM 56.1°F13.4°C 28.7°F-1.8°C 36% 4.0 mph S6.4 kmh S 6.0 mph9.7 kmh 30.09 in1019.0 mb 0.00 in0.0 mm 0.00 in0.0 mm 0.00 in0.0 mm
11:47 PM 56.0°F13.3°C 28.6°F-1.9°C 36% 5.0 mph S8.0 kmh S 7.0 mph11.3 kmh 30.09 in1019.0 mb 0.00 in0.0 mm 0.00 in0.0 mm 0.00 in0.0 mm
11:52 PM 56.0°F13.3°C 28.6°F-1.9°C 36% 6.0 mph S9.7 kmh S 7.0 mph11.3 kmh 30.08 in1018.6 mb 0.00 in0.0 mm 0.00 in0.0 mm 0.00 in0.0 mm
11:57 PM 55.9°F13.3°C 29.2°F-1.6°C 37% 6.0 mph S9.7 kmh S 7.0 mph11.3 kmh 30.08 in1018.6 mb 0.00 in0.0 mm 0.00 in0.0 mm 0.00 in0.0 mm